Time;durP1;ratioP1;P1;durP2;ratioP2;P2;SDS_P1;SDS_P2;PMS_P1;PMS_P2;Temp;Humidity;BMP_temperature;BMP_pressure;BME280_temperature;BME280_humidity;BME280_pressure;Samples;Min_cycle;Max_cycle;Signal;HPM_P1;HPM_P2
2021/01/28 00:04:01;;;;;;;37.7;26.7;;;;;;;-2.63;78.16602;98338.03;;;;
2021/01/28 00:13:58;;;;;;;34.7;25.3;;;;;;;-2.6;78.70703;98338.38;;;;
2021/01/28 00:23:55;;;;;;;34.2;23;;;;;;;-2.45;78.20996;98322.09;;;;
2021/01/28 00:33:53;;;;;;;33.5;23.7;;;;;;;-2.45;78.01172;98300.19;;;;
2021/01/28 00:43:50;;;;;;;34.7;24.6;;;;;;;-2.57;78.48438;98298.34;;;;
2021/01/28 00:53:47;;;;;;;24.2;16.8;;;;;;;-2.61;78.44238;98301.7;;;;
2021/01/28 01:03:45;;;;;;;22.9;17;;;;;;;-2.58;79.16016;98280.94;;;;
2021/01/28 01:13:42;;;;;;;36.9;21.5;;;;;;;-2.52;78.75488;98284.48;;;;
2021/01/28 01:23:40;;;;;;;30.6;22.3;;;;;;;-2.51;78.41699;98257.07;;;;
2021/01/28 01:33:37;;;;;;;35.6;23.1;;;;;;;-2.49;78.1582;98257.63;;;;
2021/01/28 01:43:34;;;;;;;27.6;19.9;;;;;;;-2.48;78.19434;98246.05;;;;
2021/01/28 01:53:32;;;;;;;32.6;21.2;;;;;;;-2.53;78.3916;98230.1;;;;
2021/01/28 02:03:31;;;;;;;24.4;17.8;;;;;;;-2.59;78.69727;98241.59;;;;
2021/01/28 02:13:29;;;;;;;31.4;19.8;;;;;;;-2.92;78.36523;98231.66;;;;
2021/01/28 02:23:24;;;;;;;32.2;18.8;;;;;;;-3.22;78.91797;98233.56;;;;
2021/01/28 02:33:21;;;;;;;33.7;17;;;;;;;-3.45;79.64941;98212.47;;;;
2021/01/28 02:43:19;;;;;;;22.5;14.7;;;;;;;-3.68;79.95605;98211.38;;;;
2021/01/28 02:53:16;;;;;;;24;15.5;;;;;;;-3.97;80.68652;98212.22;;;;
2021/01/28 03:03:14;;;;;;;21.1;15.1;;;;;;;-4.17;81.59473;98190.64;;;;
2021/01/28 03:13:10;;;;;;;20.6;14.7;;;;;;;-4.32;82.18652;98175.25;;;;
2021/01/28 03:23:07;;;;;;;16.5;11.5;;;;;;;-4.57;81.7666;98179.81;;;;
2021/01/28 03:33:05;;;;;;;15.3;9.9;;;;;;;-5;82.51074;98172.02;;;;
2021/01/28 03:43:02;;;;;;;30.4;14.1;;;;;;;-5.27;82.65234;98175.91;;;;
2021/01/28 03:52:59;;;;;;;22;15.9;;;;;;;-5.51;82.46387;98151.28;;;;
2021/01/28 04:02:56;;;;;;;19.5;12.4;;;;;;;-5.49;84.08301;98140.58;;;;
2021/01/28 04:12:53;;;;;;;20;12.6;;;;;;;-4.89;83.86621;98141.55;;;;
2021/01/28 04:22:50;;;;;;;17.3;11.5;;;;;;;-4.84;82.96387;98144.34;;;;
2021/01/28 04:32:47;;;;;;;19.3;11;;;;;;;-4.66;81.91309;98107.53;;;;
2021/01/28 04:42:44;;;;;;;17.2;10.7;;;;;;;-4.69;81.41992;98108.79;;;;
2021/01/28 04:52:42;;;;;;;22.7;15.2;;;;;;;-4.7;82.00391;98095.85;;;;
2021/01/28 05:02:39;;;;;;;20.5;12.9;;;;;;;-4.91;82.47266;98097.13;;;;
2021/01/28 05:12:36;;;;;;;22.1;11.8;;;;;;;-5.05;82.09668;98079.1;;;;
2021/01/28 05:22:33;;;;;;;16.3;9.3;;;;;;;-4.96;80.9209;98062.81;;;;
2021/01/28 05:32:42;;;;;;;19;10.1;;;;;;;-4.91;79.87598;98064.78;;;;
2021/01/28 05:42:30;;;;;;;16.1;6.2;;;;;;;-5.11;79.73145;98057.96;;;;
2021/01/28 05:52:25;;;;;;;20.6;12.7;;;;;;;-5.37;80.03906;98050.37;;;;
2021/01/28 06:02:22;;;;;;;14.9;7.7;;;;;;;-5.58;80.02051;98029.8;;;;
2021/01/28 06:12:19;;;;;;;16.6;9.1;;;;;;;-5.36;79.26953;98017.84;;;;
2021/01/28 06:22:16;;;;;;;28.5;21.7;;;;;;;-5.57;80.04395;98027.97;;;;
2021/01/28 06:32:13;;;;;;;35.5;18.3;;;;;;;-5.7;80.34473;98016.61;;;;
2021/01/28 06:42:11;;;;;;;24.7;15.2;;;;;;;-5.69;79.9668;98012.14;;;;
2021/01/28 06:52:07;;;;;;;38.5;21.7;;;;;;;-5.81;80.15137;98006.02;;;;
2021/01/28 07:02:04;;;;;;;11.4;7.1;;;;;;;-5.52;79.50195;98002.69;;;;
2021/01/28 07:12:01;;;;;;;13.1;8.5;;;;;;;-5.18;78.67285;97990.77;;;;
2021/01/28 07:21:58;;;;;;;14.5;6.5;;;;;;;-4.79;77.53906;97982.33;;;;
2021/01/28 07:31:56;;;;;;;15.5;8;;;;;;;-4.47;77.25;97959.2;;;;
2021/01/28 07:41:53;;;;;;;14.7;5.9;;;;;;;-3.96;75.50977;97934.06;;;;
2021/01/28 07:51:50;;;;;;;14.5;8.6;;;;;;;-3.7;74.85742;97920.39;;;;
2021/01/28 08:01:47;;;;;;;12.8;7.7;;;;;;;-3.52;74.4209;97911.53;;;;
2021/01/28 08:11:46;;;;;;;12;7.9;;;;;;;-3.18;73.20117;97892.16;;;;
2021/01/28 08:21:42;;;;;;;10;5.6;;;;;;;-2.8;72.86133;97854.58;;;;
2021/01/28 08:31:39;;;;;;;14.1;8.3;;;;;;;-2.45;70.07227;97873.59;;;;
2021/01/28 08:41:37;;;;;;;9.5;7.7;;;;;;;-2.11;68.625;97882.25;;;;
2021/01/28 08:51:34;;;;;;;9.3;7.1;;;;;;;-1.76;67.38477;97876.63;;;;
2021/01/28 09:01:33;;;;;;;11.5;8.9;;;;;;;-1.5;66.88672;97875.09;;;;
2021/01/28 09:11:31;;;;;;;12.5;8.2;;;;;;;-1.19;66.23145;97859.31;;;;
2021/01/28 09:21:38;;;;;;;14;9;;;;;;;-0.81;65.5625;97846.95;;;;
2021/01/28 09:31:24;;;;;;;16.5;10.3;;;;;;;-0.4;65.48242;97816.28;;;;
2021/01/28 09:41:22;;;;;;;16.7;9.4;;;;;;;0.19;64.21387;97796.44;;;;
2021/01/28 09:51:20;;;;;;;12.7;8.7;;;;;;;0.63;63.56055;97777.45;;;;
2021/01/28 10:01:18;;;;;;;13.1;7.8;;;;;;;1.01;62.38965;97764.48;;;;
2021/01/28 10:11:16;;;;;;;11.8;7.3;;;;;;;1.5;61.30566;97746.11;;;;
2021/01/28 10:21:13;;;;;;;16.8;9.8;;;;;;;1.71;59.69141;97730.91;;;;
2021/01/28 10:31:12;;;;;;;13.4;8.1;;;;;;;1.73;60.82813;97723.48;;;;
2021/01/28 10:41:10;;;;;;;12;8;;;;;;;1.96;60.37109;97692.81;;;;
2021/01/28 10:51:08;;;;;;;12;8;;;;;;;1.94;61.95703;97674.48;;;;
2021/01/28 11:01:06;;;;;;;10.7;6.6;;;;;;;1.93;61.0791;97664.14;;;;
2021/01/28 11:11:04;;;;;;;13;7.9;;;;;;;2.45;61.1875;97645.72;;;;
2021/01/28 11:21:02;;;;;;;11;6.9;;;;;;;2.63;61.16699;97625.63;;;;
2021/01/28 11:31:00;;;;;;;10.2;7.4;;;;;;;2.41;61.72559;97593.37;;;;
2021/01/28 11:40:58;;;;;;;13.6;7.6;;;;;;;2.46;62.88867;97601.31;;;;
2021/01/28 11:50:57;;;;;;;11.8;7.9;;;;;;;2.58;62.39551;97575.13;;;;
2021/01/28 12:00:55;;;;;;;10.7;8.2;;;;;;;3.1;61.63477;97554.89;;;;
2021/01/28 12:10:53;;;;;;;11;9.2;;;;;;;2.65;63.00488;97529.58;;;;
2021/01/28 12:20:51;;;;;;;16.4;9.5;;;;;;;2.95;62.96191;97511.41;;;;
2021/01/28 12:30:49;;;;;;;14.1;9.3;;;;;;;3.05;62.875;97510.52;;;;
2021/01/28 12:40:48;;;;;;;13.3;10;;;;;;;3.16;63.39355;97495.98;;;;
2021/01/28 12:50:46;;;;;;;18;12.6;;;;;;;3.28;62.50781;97490.24;;;;
2021/01/28 13:00:44;;;;;;;11.6;9.2;;;;;;;3.16;63.60352;97476.58;;;;
2021/01/28 13:10:42;;;;;;;13.7;7.8;;;;;;;3.29;63.69043;97468.67;;;;
2021/01/28 13:20:40;;;;;;;16.2;9.7;;;;;;;3.22;63.13379;97454.13;;;;
2021/01/28 13:30:38;;;;;;;18.4;9.8;;;;;;;3.27;63.84375;97438.06;;;;
2021/01/28 13:40:37;;;;;;;9.2;8.2;;;;;;;3.29;64.72559;97435.92;;;;
2021/01/28 13:50:35;;;;;;;10.9;7.8;;;;;;;3.05;65.90234;97422.69;;;;
2021/01/28 14:00:33;;;;;;;9.4;7.6;;;;;;;2.58;67.30762;97415.56;;;;
2021/01/28 14:10:32;;;;;;;9.7;8.2;;;;;;;2.41;68.53516;97415.23;;;;
2021/01/28 14:20:30;;;;;;;8.1;6.7;;;;;;;2.44;68.3623;97398.7;;;;
2021/01/28 14:30:31;;;;;;;10.3;8.2;;;;;;;2.28;68.98047;97376.04;;;;
2021/01/28 14:40:25;;;;;;;16.1;8.9;;;;;;;2.17;69.7168;97370.05;;;;
2021/01/28 14:50:23;;;;;;;9.6;7.1;;;;;;;2.02;70.40137;97362.22;;;;
2021/01/28 15:00:21;;;;;;;15.3;12;;;;;;;1.78;72.05566;97362.2;;;;
2021/01/28 15:10:19;;;;;;;19.5;11.6;;;;;;;1.78;71.65723;97348.92;;;;
2021/01/28 15:20:18;;;;;;;19.8;13.3;;;;;;;1.69;71.875;97334.69;;;;
2021/01/28 15:30:15;;;;;;;15.5;11.3;;;;;;;1.48;72.66797;97317.36;;;;
2021/01/28 15:40:13;;;;;;;19.1;12.5;;;;;;;1.39;73.53906;97303.89;;;;
2021/01/28 15:50:11;;;;;;;17;12;;;;;;;1.31;74.50879;97295.76;;;;
2021/01/28 16:00:09;;;;;;;15.8;8.8;;;;;;;1.21;75.1084;97264.01;;;;
2021/01/28 16:10:07;;;;;;;19;11.2;;;;;;;1.2;75.14063;97251.8;;;;
2021/01/28 16:20:04;;;;;;;13.7;11.4;;;;;;;1.22;75.26465;97254.95;;;;
2021/01/28 16:30:02;;;;;;;23.3;16.1;;;;;;;1.27;75.09766;97244.3;;;;
2021/01/28 16:40:00;;;;;;;19.1;11.8;;;;;;;1.3;75.23438;97233.13;;;;
2021/01/28 16:49:58;;;;;;;13.5;10.7;;;;;;;1.39;75.31641;97226.12;;;;
2021/01/28 16:59:56;;;;;;;15.9;11.5;;;;;;;1.43;74.97266;97219.98;;;;
2021/01/28 17:09:53;;;;;;;34.2;17.1;;;;;;;1.5;74.7832;97203.7;;;;
2021/01/28 17:19:51;;;;;;;19.7;14.3;;;;;;;1.57;74.41992;97200.71;;;;
2021/01/28 17:29:49;;;;;;;21.1;12.2;;;;;;;1.67;74.42676;97193.42;;;;
2021/01/28 17:39:52;;;;;;;13.9;8.9;;;;;;;1.71;74.79883;97180.36;;;;
2021/01/28 17:49:45;;;;;;;10.7;7.3;;;;;;;1.69;75.63574;97170.05;;;;
2021/01/28 17:59:43;;;;;;;14.8;9.1;;;;;;;1.66;76.4248;97153.89;;;;
2021/01/28 18:09:41;;;;;;;12.5;10;;;;;;;1.57;78.375;97152.92;;;;
2021/01/28 18:19:39;;;;;;;15.2;11.1;;;;;;;1.49;79.30078;97152.47;;;;
2021/01/28 18:29:37;;;;;;;14;9.7;;;;;;;1.44;80.30566;97143.8;;;;
2021/01/28 18:39:34;;;;;;;16.3;10.4;;;;;;;1.35;81.22656;97142.84;;;;
2021/01/28 18:49:32;;;;;;;13.3;9.8;;;;;;;1.29;81.06055;97146.61;;;;
2021/01/28 18:59:31;;;;;;;16.6;11.1;;;;;;;1.22;82.07227;97148.81;;;;
2021/01/28 19:09:32;;;;;;;16;13.2;;;;;;;1.14;83.19141;97138.84;;;;
2021/01/28 19:19:26;;;;;;;15.2;12.3;;;;;;;1.09;84.11719;97138.88;;;;
2021/01/28 19:29:24;;;;;;;18;11.6;;;;;;;1.04;84.88965;97130.99;;;;
2021/01/28 19:39:22;;;;;;;21.8;15.1;;;;;;;1.08;84.875;97121.41;;;;
2021/01/28 19:49:20;;;;;;;31.6;20;;;;;;;1.01;85.7998;97130.47;;;;
2021/01/28 19:59:18;;;;;;;22.5;18;;;;;;;0.89;86.57813;97114.16;;;;
2021/01/28 20:09:16;;;;;;;19;13.8;;;;;;;0.87;87.0127;97115.5;;;;
2021/01/28 20:19:14;;;;;;;21.2;15.5;;;;;;;0.64;88.4707;97126.86;;;;
2021/01/28 20:29:11;;;;;;;15.6;12.4;;;;;;;0.48;89.50391;97119.06;;;;
2021/01/28 20:39:09;;;;;;;16.3;11.3;;;;;;;0.52;89.63281;97108.7;;;;
2021/01/28 20:49:08;;;;;;;17.9;12.7;;;;;;;0.49;89.42871;97088.03;;;;
2021/01/28 20:59:05;;;;;;;13.3;10.9;;;;;;;0.62;89.63086;97107.81;;;;
2021/01/28 21:09:03;;;;;;;26.7;14.6;;;;;;;0.62;89.70996;97105.95;;;;
2021/01/28 21:19:01;;;;;;;18.2;10.6;;;;;;;0.68;89.6875;97102.18;;;;
2021/01/28 21:28:59;;;;;;;16.1;12.5;;;;;;;0.61;89.90332;97091.11;;;;
2021/01/28 21:38:56;;;;;;;14.7;11.9;;;;;;;0.6;89.92383;97084.22;;;;
2021/01/28 21:48:54;;;;;;;21.7;13;;;;;;;0.55;89.79199;97100.19;;;;
2021/01/28 21:58:52;;;;;;;19.1;12.4;;;;;;;0.56;90.54199;97104.39;;;;
2021/01/28 22:08:50;;;;;;;18.8;13.1;;;;;;;0.64;90.25098;97106.45;;;;
2021/01/28 22:18:48;;;;;;;20.9;13.9;;;;;;;0.65;90.28613;97094.79;;;;
2021/01/28 22:28:46;;;;;;;21;14.3;;;;;;;0.84;89.46875;97090.34;;;;
2021/01/28 22:38:43;;;;;;;26.1;14.3;;;;;;;0.94;88.81934;97090.22;;;;
2021/01/28 22:48:41;;;;;;;43.5;32.7;;;;;;;0.94;88.83008;97095.53;;;;
2021/01/28 22:58:39;;;;;;;59.4;39.1;;;;;;;0.93;89.19238;97093.97;;;;
2021/01/28 23:08:37;;;;;;;39.8;26.3;;;;;;;0.86;89.33008;97084.77;;;;
2021/01/28 23:18:35;;;;;;;26;23.2;;;;;;;0.66;89.9043;97077.79;;;;
2021/01/28 23:28:32;;;;;;;43.4;27.5;;;;;;;0.58;90.5459;97075.77;;;;
2021/01/28 23:38:31;;;;;;;54.8;36.4;;;;;;;0.42;91.56445;97066.36;;;;
2021/01/28 23:48:31;;;;;;;47.5;36.4;;;;;;;0.35;91.87891;97081.8;;;;
2021/01/28 23:58:26;;;;;;;54.4;40;;;;;;;0.25;91.89063;97074.73;;;;
